Time;durP1;ratioP1;P1;durP2;ratioP2;P2;SDS_P1;SDS_P2;PMS_P1;PMS_P2;Temp;Humidity;BMP_temperature;BMP_pressure;BME280_temperature;BME280_humidity;BME280_pressure;Samples;Min_cycle;Max_cycle;Signal;HPM_P1;HPM_P2
2023/11/04 00:01:42;;;;;;;2.47;1.00;;;;;;;19.28;45.88;98538.97;5026957;28;20029;-69
2023/11/04 00:04:08;;;;;;;1.63;0.70;;;;;;;19.29;45.86;98537.97;5025953;28;20037;-68
2023/11/04 00:06:34;;;;;;;1.50;0.60;;;;;;;19.27;45.90;98538.16;5026913;28;20025;-67
2023/11/04 00:08:59;;;;;;;1.52;0.70;;;;;;;19.26;45.95;98536.50;5027198;28;20021;-68
2023/11/04 00:11:26;;;;;;;1.65;0.60;;;;;;;19.25;45.74;98534.91;5026853;28;20457;-69
2023/11/04 00:13:51;;;;;;;1.17;0.52;;;;;;;19.26;45.86;98525.13;5027381;28;20068;-69
2023/11/04 00:16:17;;;;;;;2.10;0.98;;;;;;;19.24;45.44;98527.16;5027468;28;20458;-70
2023/11/04 00:18:42;;;;;;;2.17;0.80;;;;;;;19.24;45.92;98538.53;5027262;28;20492;-69
2023/11/04 00:21:07;;;;;;;1.20;0.60;;;;;;;19.23;45.56;98533.44;5026962;28;20474;-68
2023/11/04 00:23:33;;;;;;;2.03;0.70;;;;;;;19.21;45.73;98526.50;5026879;28;20036;-69
2023/11/04 00:25:59;;;;;;;1.60;0.70;;;;;;;19.16;45.62;98523.63;5026239;28;20107;-70
2023/11/04 00:28:24;;;;;;;1.27;0.60;;;;;;;19.21;45.64;98531.78;5026674;28;20055;-68
2023/11/04 00:30:49;;;;;;;1.83;0.90;;;;;;;19.19;45.70;98539.09;5026478;28;20093;-69
2023/11/04 00:33:16;;;;;;;1.63;0.63;;;;;;;19.20;45.78;98527.53;5026048;28;20025;-68
2023/11/04 00:35:41;;;;;;;1.42;0.57;;;;;;;19.19;45.85;98523.25;5026335;28;20117;-67
2023/11/04 00:38:07;;;;;;;1.45;0.70;;;;;;;19.19;45.88;98533.00;5026813;28;20124;-69
2023/11/04 00:40:33;;;;;;;1.38;0.60;;;;;;;19.17;45.74;98521.81;5026351;28;20048;-69
2023/11/04 00:42:59;;;;;;;1.58;0.70;;;;;;;19.17;45.70;98533.19;5026891;28;20468;-68
2023/11/04 00:45:24;;;;;;;1.65;0.60;;;;;;;19.16;46.06;98520.16;5026935;28;20033;-69
2023/11/04 00:47:50;;;;;;;2.30;0.73;;;;;;;19.16;45.72;98528.09;5027324;28;20045;-68
2023/11/04 00:50:16;;;;;;;1.87;0.70;;;;;;;19.17;45.71;98529.75;5009569;28;20036;-68
2023/11/04 00:52:41;;;;;;;1.42;0.50;;;;;;;19.14;45.79;98528.28;5026917;28;20294;-69
2023/11/04 00:55:07;;;;;;;2.13;0.80;;;;;;;19.15;45.82;98529.09;5026689;28;20060;-69
2023/11/04 00:57:32;;;;;;;2.05;0.73;;;;;;;19.14;45.73;98533.56;5026883;28;20049;-67
2023/11/04 00:59:58;;;;;;;1.60;0.50;;;;;;;19.16;45.66;98536.00;5026999;28;20076;-68
2023/11/04 01:02:23;;;;;;;1.38;0.60;;;;;;;19.14;45.69;98538.03;5026434;28;20755;-69
2023/11/04 01:04:48;;;;;;;1.73;0.47;;;;;;;19.13;45.62;98534.56;5026633;28;20040;-68
2023/11/04 01:07:14;;;;;;;1.67;0.70;;;;;;;19.13;45.76;98541.66;5027230;28;20095;-67
2023/11/04 01:09:39;;;;;;;1.52;0.60;;;;;;;19.12;45.81;98537.38;5026790;28;20429;-68
2023/11/04 01:12:05;;;;;;;1.23;0.50;;;;;;;19.12;45.94;98534.75;5026883;28;20025;-68
2023/11/04 01:14:30;;;;;;;1.95;0.52;;;;;;;19.11;45.57;98522.56;5026874;28;20034;-69
2023/11/04 01:16:56;;;;;;;0.85;0.50;;;;;;;19.10;45.68;98536.75;5026582;28;20040;-69
2023/11/04 01:19:21;;;;;;;2.07;0.60;;;;;;;19.09;45.64;98530.66;5026898;28;20034;-69
2023/11/04 01:21:46;;;;;;;1.90;0.70;;;;;;;19.10;45.72;98529.66;5026142;28;20654;-69
2023/11/04 01:24:12;;;;;;;1.95;0.60;;;;;;;19.09;45.62;98530.66;5026037;28;20365;-70
2023/11/04 01:26:37;;;;;;;2.17;0.85;;;;;;;19.08;45.77;98521.09;5026227;28;21135;-69
2023/11/04 01:29:02;;;;;;;1.65;0.75;;;;;;;19.09;45.79;98521.91;5025699;28;20029;-69
2023/11/04 01:31:28;;;;;;;2.22;0.68;;;;;;;19.07;45.75;98523.94;5025747;28;20048;-69
2023/11/04 01:33:53;;;;;;;2.95;0.70;;;;;;;19.08;45.60;98525.56;5025477;28;20049;-69
2023/11/04 01:36:18;;;;;;;1.30;0.68;;;;;;;19.07;45.67;98516.81;5025260;28;20037;-67
2023/11/04 01:38:44;;;;;;;1.20;0.55;;;;;;;19.05;45.55;98505.63;5024670;28;20083;-69
2023/11/04 01:41:09;;;;;;;1.77;0.53;;;;;;;19.05;45.72;98499.53;5024905;28;20032;-68
2023/11/04 01:43:34;;;;;;;1.98;0.80;;;;;;;19.05;45.62;98505.63;5025830;28;20276;-70
2023/11/04 01:46:11;;;;;;;0.63;0.40;;;;;;;19.03;45.56;98502.38;5025938;28;20033;-70
2023/11/04 01:48:38;;;;;;;2.05;0.60;;;;;;;19.03;45.72;98502.38;5026505;28;20262;-69
2023/11/04 01:51:04;;;;;;;1.58;0.70;;;;;;;19.02;45.73;98506.81;5025943;28;20147;-69
2023/11/04 01:53:31;;;;;;;2.95;0.98;;;;;;;19.02;45.62;98512.09;5026376;28;20505;-69
2023/11/04 01:55:56;;;;;;;2.35;0.70;;;;;;;19.03;45.70;98507.66;5026160;28;20434;-69
2023/11/04 01:58:22;;;;;;;1.50;0.60;;;;;;;18.99;45.68;98493.19;5026405;28;20532;-69
2023/11/04 02:00:48;;;;;;;2.42;0.63;;;;;;;18.99;45.74;98494.03;5026339;28;20040;-68
2023/11/04 02:03:16;;;;;;;1.73;0.60;;;;;;;18.98;45.69;98491.56;5026328;28;20373;-68
2023/11/04 02:05:42;;;;;;;2.25;0.70;;;;;;;18.98;45.64;98487.09;5026444;28;20037;-69
2023/11/04 02:08:08;;;;;;;1.27;0.55;;;;;;;18.99;45.88;98479.97;5026510;28;20036;-70
2023/11/04 02:10:33;;;;;;;2.47;0.70;;;;;;;18.99;45.72;98486.09;5026254;28;20030;-70
2023/11/04 02:12:59;;;;;;;1.58;0.63;;;;;;;18.98;45.82;98475.72;5025971;28;20414;-70
2023/11/04 02:15:25;;;;;;;1.67;0.60;;;;;;;18.98;45.76;98486.28;5028546;28;20029;-69
2023/11/04 02:17:50;;;;;;;1.67;0.60;;;;;;;18.97;45.73;98476.72;5029882;28;20052;-68
2023/11/04 02:20:19;;;;;;;1.08;0.50;;;;;;;18.96;45.71;98475.06;5044347;28;20041;-69
2023/11/04 02:22:44;;;;;;;1.50;0.70;;;;;;;18.95;45.78;98474.28;5029282;28;20041;-69
2023/11/04 02:25:09;;;;;;;1.63;0.70;;;;;;;18.95;45.72;98476.09;5029584;28;20022;-69
2023/11/04 02:27:35;;;;;;;2.53;0.70;;;;;;;18.95;45.72;98479.53;5029459;28;20021;-70
2023/11/04 02:30:02;;;;;;;2.03;0.77;;;;;;;18.95;45.94;98487.47;5029227;28;20021;-69
2023/11/04 02:32:27;;;;;;;2.65;0.68;;;;;;;18.95;45.74;98478.75;5029057;28;20044;-69
2023/11/04 02:34:52;;;;;;;2.20;0.77;;;;;;;18.96;45.81;98480.34;5029389;28;20389;-68
2023/11/04 02:37:18;;;;;;;4.00;0.97;;;;;;;18.94;45.76;98479.72;5029342;28;20033;-69
2023/11/04 02:39:44;;;;;;;2.20;0.80;;;;;;;18.95;45.91;98481.38;5028629;28;20270;-69
2023/11/04 02:42:09;;;;;;;2.17;0.80;;;;;;;18.93;45.95;98471.00;5028933;28;20029;-68
2023/11/04 02:44:34;;;;;;;1.95;0.75;;;;;;;18.93;45.97;98472.81;5029146;28;20029;-69
2023/11/04 02:47:00;;;;;;;1.77;0.70;;;;;;;18.93;45.88;98475.44;5028761;28;21494;-69
2023/11/04 02:49:25;;;;;;;2.47;0.70;;;;;;;18.91;46.01;98467.72;5028369;28;20037;-70
2023/11/04 02:51:50;;;;;;;2.60;0.70;;;;;;;18.91;45.97;98467.72;5028965;28;20037;-69
2023/11/04 02:54:16;;;;;;;1.80;0.65;;;;;;;18.91;45.92;98461.63;5028736;28;20075;-69
2023/11/04 02:56:41;;;;;;;1.42;0.63;;;;;;;18.92;46.04;98460.63;5027735;28;20507;-70
2023/11/04 02:59:06;;;;;;;2.00;0.60;;;;;;;18.92;46.01;98463.28;5027973;28;20033;-69
2023/11/04 03:01:32;;;;;;;2.25;0.70;;;;;;;18.91;46.10;98459.00;5028128;28;20036;-69
2023/11/04 03:04:01;;;;;;;1.98;0.70;;;;;;;18.90;46.04;98463.47;5028057;28;20067;-70
2023/11/04 03:06:26;;;;;;;1.27;0.60;;;;;;;18.90;46.18;98459.97;5027570;28;20037;-70
2023/11/04 03:08:51;;;;;;;1.50;0.60;;;;;;;18.90;46.06;98465.25;5027833;28;20045;-70
2023/11/04 03:11:17;;;;;;;2.47;0.70;;;;;;;18.90;46.28;98463.47;5028604;28;20033;-67
2023/11/04 03:13:42;;;;;;;2.33;0.65;;;;;;;18.89;46.27;98455.72;5028461;28;20072;-69
2023/11/04 03:16:08;;;;;;;2.22;1.00;;;;;;;18.86;46.24;98456.91;5028475;28;20038;-68
2023/11/04 03:18:33;;;;;;;1.92;0.70;;;;;;;18.88;46.23;98467.28;5027771;28;20088;-69
2023/11/04 03:20:58;;;;;;;2.70;0.73;;;;;;;18.88;46.46;98459.38;5028276;28;20029;-69
2023/11/04 03:23:24;;;;;;;2.22;0.70;;;;;;;18.87;46.13;98463.84;5028314;28;20642;-71
2023/11/04 03:25:49;;;;;;;1.57;0.70;;;;;;;18.86;46.25;98454.28;5026334;28;20629;-70
2023/11/04 03:28:15;;;;;;;3.90;0.80;;;;;;;18.84;46.39;98457.09;5027093;28;20270;-69
2023/11/04 03:30:40;;;;;;;1.50;0.70;;;;;;;18.85;46.44;98445.53;5027669;28;20556;-68
2023/11/04 03:33:05;;;;;;;1.70;0.77;;;;;;;18.84;46.25;98446.53;5026473;28;20369;-69
2023/11/04 03:35:31;;;;;;;1.92;0.73;;;;;;;18.85;45.91;98445.53;5027287;28;20029;-70
2023/11/04 03:37:56;;;;;;;1.40;0.70;;;;;;;18.84;46.40;98445.72;5027232;28;20152;-67
2023/11/04 03:40:22;;;;;;;2.05;1.00;;;;;;;18.84;46.51;98449.19;5027359;28;20032;-69
2023/11/04 03:42:47;;;;;;;1.63;0.60;;;;;;;18.83;46.44;98439.63;5026874;28;20041;-68
2023/11/04 03:45:13;;;;;;;1.80;0.80;;;;;;;18.83;46.36;98433.50;5027128;28;20025;-70
2023/11/04 03:47:38;;;;;;;2.63;0.90;;;;;;;18.83;46.17;98438.78;5026777;28;20373;-69
2023/11/04 03:50:06;;;;;;;2.67;0.80;;;;;;;18.84;46.43;98432.53;5027046;28;20120;-70
2023/11/04 03:52:31;;;;;;;1.95;0.75;;;;;;;18.83;46.60;98428.22;5026663;28;20469;-68
2023/11/04 03:54:57;;;;;;;1.85;0.70;;;;;;;18.82;46.57;98424.78;5027168;28;20040;-68
2023/11/04 03:57:22;;;;;;;2.72;0.90;;;;;;;18.80;46.71;98418.88;5026910;28;20044;-68
2023/11/04 03:59:47;;;;;;;2.28;0.70;;;;;;;18.81;46.75;98409.94;5026737;28;20466;-70
2023/11/04 04:02:13;;;;;;;3.22;0.80;;;;;;;18.80;46.72;98397.78;5026360;28;20462;-67
2023/11/04 04:04:38;;;;;;;2.20;0.73;;;;;;;18.80;46.57;98395.13;5026767;28;20052;-68
2023/11/04 04:07:04;;;;;;;1.50;0.63;;;;;;;18.79;46.56;98393.50;5026698;28;20035;-68
2023/11/04 04:09:30;;;;;;;3.20;0.98;;;;;;;18.79;46.71;98390.84;5026327;28;20034;-69
2023/11/04 04:11:56;;;;;;;2.42;0.88;;;;;;;18.79;46.75;98404.03;5026504;28;20025;-70
2023/11/04 04:14:21;;;;;;;2.63;1.13;;;;;;;18.80;46.65;98397.78;4993093;28;20026;-68
2023/11/04 04:16:46;;;;;;;1.83;0.90;;;;;;;18.79;46.73;98390.03;5026161;28;20126;-70
2023/11/04 04:19:12;;;;;;;2.08;0.80;;;;;;;18.80;46.52;98389.00;5025973;28;20291;-67
2023/11/04 04:21:38;;;;;;;2.53;0.70;;;;;;;18.78;46.72;98383.13;5026380;28;20042;-70
2023/11/04 04:24:04;;;;;;;2.75;0.88;;;;;;;18.77;46.60;98381.47;5026185;28;20037;-68
2023/11/04 04:26:29;;;;;;;2.75;0.70;;;;;;;18.77;46.82;98377.03;5026124;28;20036;-69
2023/11/04 04:28:54;;;;;;;2.53;0.82;;;;;;;18.76;46.73;98377.22;5026055;28;20048;-68
2023/11/04 04:31:20;;;;;;;3.83;1.03;;;;;;;18.78;46.77;98383.13;5026432;28;20120;-69
2023/11/04 04:33:45;;;;;;;2.80;0.70;;;;;;;18.79;46.67;98374.22;5026100;28;20286;-70
2023/11/04 04:36:10;;;;;;;2.80;0.90;;;;;;;18.77;46.80;98373.56;5026045;28;20136;-67
2023/11/04 04:38:37;;;;;;;3.13;1.00;;;;;;;18.77;46.73;98361.22;5026006;28;20355;-70
2023/11/04 04:41:02;;;;;;;2.25;0.90;;;;;;;18.77;46.69;98374.41;5008330;28;20047;-69
2023/11/04 04:43:28;;;;;;;3.05;0.90;;;;;;;18.77;46.88;98373.56;5025857;28;20018;-69
2023/11/04 04:45:53;;;;;;;3.17;0.90;;;;;;;18.78;46.65;98364.66;5025803;28;20029;-68
2023/11/04 04:48:18;;;;;;;1.75;0.70;;;;;;;18.76;46.87;98361.38;5025764;28;20485;-67
2023/11/04 04:50:43;;;;;;;1.60;0.70;;;;;;;18.77;47.00;98360.38;5025872;28;20116;-69
2023/11/04 04:53:09;;;;;;;1.60;0.60;;;;;;;18.76;46.88;98353.47;5026280;28;20109;-69
2023/11/04 04:55:34;;;;;;;1.85;0.80;;;;;;;18.77;46.72;98353.28;5025702;28;20454;-68
2023/11/04 04:57:59;;;;;;;3.50;1.00;;;;;;;18.78;46.92;98340.91;5025398;28;20036;-70
2023/11/04 05:00:25;;;;;;;2.20;0.82;;;;;;;18.75;46.96;98339.44;5026192;28;20780;-68
2023/11/04 05:02:50;;;;;;;1.93;0.73;;;;;;;18.76;46.60;98338.44;5024446;28;20032;-69
2023/11/04 05:05:15;;;;;;;2.33;0.90;;;;;;;18.75;46.93;98342.09;5025569;28;20270;-69
2023/11/04 05:07:41;;;;;;;2.97;0.85;;;;;;;18.75;47.00;98328.91;5025765;28;20033;-70
2023/11/04 05:10:07;;;;;;;3.03;0.80;;;;;;;18.75;46.76;98328.91;5025727;28;20025;-69
2023/11/04 05:12:32;;;;;;;2.10;0.80;;;;;;;18.75;46.80;98334.16;5025295;28;20029;-69
2023/11/04 05:14:57;;;;;;;1.55;0.85;;;;;;;18.76;46.94;98335.00;5025606;28;20030;-68
2023/11/04 05:17:23;;;;;;;2.17;0.90;;;;;;;18.75;46.95;98334.16;5025358;28;20029;-70
2023/11/04 05:19:48;;;;;;;2.22;0.90;;;;;;;18.72;46.88;98331.09;5025670;28;20036;-70
2023/11/04 05:22:13;;;;;;;2.85;0.80;;;;;;;18.74;46.98;98329.09;5025096;28;20045;-69
2023/11/04 05:24:39;;;;;;;2.65;0.93;;;;;;;18.74;46.92;98326.44;5026040;28;20063;-69
2023/11/04 05:27:05;;;;;;;1.70;0.80;;;;;;;18.72;46.83;98326.63;5026050;28;20029;-71
2023/11/04 05:29:31;;;;;;;2.55;0.80;;;;;;;18.73;46.95;98316.91;5026090;28;20036;-70
2023/11/04 05:31:56;;;;;;;1.30;0.80;;;;;;;18.72;47.33;98318.72;5025568;28;20036;-70
2023/11/04 05:34:21;;;;;;;2.63;0.88;;;;;;;18.73;46.95;98314.28;5025429;28;20056;-69
2023/11/04 05:36:48;;;;;;;1.73;0.80;;;;;;;18.71;46.95;98309.19;5024724;28;20068;-69
2023/11/04 05:39:15;;;;;;;2.25;0.70;;;;;;;18.71;46.92;98305.72;5025654;28;20107;-69
2023/11/04 05:41:41;;;;;;;2.53;0.80;;;;;;;18.71;46.84;98308.34;5024408;28;20535;-69
2023/11/04 05:44:06;;;;;;;3.05;1.00;;;;;;;18.70;46.84;98297.00;5007422;28;20120;-69
2023/11/04 05:46:31;;;;;;;4.22;0.90;;;;;;;18.71;46.76;98300.44;5007658;28;20618;-68
2023/11/04 05:48:57;;;;;;;1.60;0.75;;;;;;;18.68;46.79;98291.91;5024816;28;20397;-68
2023/11/04 05:51:25;;;;;;;1.67;0.70;;;;;;;18.67;46.81;98290.28;5029509;28;20040;-67
2023/11/04 05:53:51;;;;;;;2.08;0.80;;;;;;;18.70;46.72;98283.81;5028919;28;20022;-69
2023/11/04 05:56:17;;;;;;;2.03;0.80;;;;;;;18.66;46.84;98280.72;5029429;28;20036;-68
2023/11/04 05:58:43;;;;;;;1.67;0.70;;;;;;;18.67;46.77;98277.09;5029769;28;20037;-69
2023/11/04 06:01:08;;;;;;;4.72;1.08;;;;;;;18.66;46.82;98274.66;5029609;28;20092;-69
2023/11/04 06:03:34;;;;;;;2.70;0.80;;;;;;;18.66;46.83;98279.94;5029835;28;20033;-68
2023/11/04 06:05:59;;;;;;;2.25;1.00;;;;;;;18.66;47.06;98282.56;5029302;28;20485;-68
2023/11/04 06:08:25;;;;;;;2.60;0.82;;;;;;;18.64;46.80;98269.56;5029756;28;20025;-68
2023/11/04 06:10:50;;;;;;;2.88;0.80;;;;;;;18.65;46.90;98270.38;5029247;28;20056;-67
2023/11/04 06:13:16;;;;;;;3.45;0.88;;;;;;;18.67;47.00;98274.47;5028694;28;20025;-66
2023/11/04 06:15:42;;;;;;;2.50;0.90;;;;;;;18.66;47.14;98264.91;5028105;28;20466;-69
2023/11/04 06:18:07;;;;;;;5.07;0.73;;;;;;;18.67;47.20;98258.63;5028831;28;20033;-69
2023/11/04 06:20:32;;;;;;;3.20;0.82;;;;;;;18.65;47.29;98255.34;5028421;28;20293;-68
2023/11/04 06:22:58;;;;;;;2.72;0.80;;;;;;;18.65;47.52;98257.19;5028274;28;20043;-69
2023/11/04 06:25:23;;;;;;;2.47;0.88;;;;;;;18.65;47.41;98251.91;5028780;28;20021;-68
2023/11/04 06:27:48;;;;;;;2.38;0.80;;;;;;;18.65;47.58;98244.00;5026117;28;20132;-68
2023/11/04 06:30:14;;;;;;;2.35;0.80;;;;;;;18.65;47.58;98242.16;5029301;28;20029;-71
2023/11/04 06:32:39;;;;;;;1.88;0.77;;;;;;;18.65;47.76;98241.34;5029023;28;20083;-68
2023/11/04 06:35:05;;;;;;;2.70;0.95;;;;;;;18.66;47.97;98240.34;5028668;28;20386;-70
2023/11/04 06:37:30;;;;;;;2.08;0.70;;;;;;;18.64;47.98;98243.19;5028967;28;20033;-66
2023/11/04 06:39:57;;;;;;;1.98;0.80;;;;;;;18.65;48.03;98254.53;5029303;28;20420;-69
2023/11/04 06:42:26;;;;;;;3.47;0.80;;;;;;;18.65;48.12;98247.44;5028799;28;20041;-70
2023/11/04 06:44:52;;;;;;;1.85;0.73;;;;;;;18.70;47.95;98243.41;5028865;28;20041;-70
2023/11/04 06:47:18;;;;;;;1.83;0.60;;;;;;;18.71;47.83;98245.03;5028952;28;20117;-69
2023/11/04 06:49:43;;;;;;;1.77;0.70;;;;;;;18.74;47.64;98242.00;5028859;28;20109;-70
2023/11/04 06:52:08;;;;;;;3.50;0.90;;;;;;;18.76;47.77;98235.56;5028411;28;20033;-70
2023/11/04 06:54:34;;;;;;;2.42;0.80;;;;;;;18.78;47.51;98241.44;5028913;28;20029;-70
2023/11/04 06:56:59;;;;;;;1.75;0.70;;;;;;;18.81;47.58;98229.69;5027952;28;20099;-69
2023/11/04 06:59:24;;;;;;;2.05;0.70;;;;;;;18.83;47.58;98225.88;5027363;28;20434;-69
2023/11/04 07:01:50;;;;;;;3.28;0.73;;;;;;;18.83;47.65;98227.69;5027707;28;20025;-68
2023/11/04 07:04:15;;;;;;;2.35;0.80;;;;;;;18.84;47.67;98226.72;5026997;28;20029;-69
2023/11/04 07:06:42;;;;;;;2.50;0.88;;;;;;;18.85;47.83;98223.88;5027518;28;20465;-69
2023/11/04 07:09:08;;;;;;;2.45;0.60;;;;;;;18.88;47.85;98224.50;5027628;28;20036;-70
2023/11/04 07:11:34;;;;;;;3.28;0.80;;;;;;;18.87;48.10;98215.78;5027440;28;20056;-69
2023/11/04 07:13:59;;;;;;;3.15;0.88;;;;;;;18.89;48.32;98210.31;5026948;28;20454;-70
2023/11/04 07:16:24;;;;;;;2.63;0.88;;;;;;;18.89;48.27;98203.19;5027864;28;20444;-70
2023/11/04 07:18:49;;;;;;;1.85;0.65;;;;;;;18.91;48.23;98213.56;5027104;28;20036;-70
2023/11/04 07:21:15;;;;;;;2.15;0.77;;;;;;;18.93;48.24;98200.97;5027057;28;20041;-68
2023/11/04 07:23:41;;;;;;;4.25;1.15;;;;;;;18.92;48.43;98202.00;5027343;28;20033;-68
2023/11/04 07:26:07;;;;;;;2.05;0.80;;;;;;;18.93;48.33;98193.91;5027073;28;20026;-68
2023/11/04 07:28:36;;;;;;;2.60;0.80;;;;;;;18.94;48.28;98192.06;5027228;28;20048;-70
2023/11/04 07:31:07;;;;;;;2.90;0.80;;;;;;;18.94;48.51;98192.06;5027663;28;20034;-68
2023/11/04 07:33:34;;;;;;;4.28;0.90;;;;;;;18.97;48.35;98189.03;5027225;28;20048;-68
2023/11/04 07:35:59;;;;;;;2.80;0.80;;;;;;;18.96;48.46;98184.75;5027389;28;20029;-70
2023/11/04 07:38:24;;;;;;;3.00;0.90;;;;;;;18.94;48.48;98176.22;5026874;28;20540;-71
2023/11/04 07:40:51;;;;;;;2.60;0.80;;;;;;;18.97;48.31;98179.28;5027931;28;20116;-71
2023/11/04 07:43:19;;;;;;;3.65;0.70;;;;;;;18.96;48.55;98174.19;4993185;28;20029;-70
2023/11/04 07:45:45;;;;;;;3.67;0.93;;;;;;;18.96;48.36;98169.75;5025521;28;20044;-67
2023/11/04 07:48:10;;;;;;;3.28;0.70;;;;;;;19.00;48.38;98178.09;5026499;28;20393;-70
2023/11/04 07:50:36;;;;;;;2.45;0.77;;;;;;;18.99;48.26;98155.34;5026478;28;20060;-69
2023/11/04 07:53:02;;;;;;;2.70;0.80;;;;;;;18.98;48.32;98154.53;5025932;28;20084;-69
2023/11/04 07:55:27;;;;;;;2.03;0.70;;;;;;;19.00;47.84;98151.69;5026783;28;20470;-70
2023/11/04 07:57:52;;;;;;;3.33;1.00;;;;;;;19.00;48.17;98149.06;5025803;28;20040;-68
2023/11/04 08:00:18;;;;;;;4.30;0.90;;;;;;;19.00;48.02;98141.94;5026798;28;20029;-70
2023/11/04 08:02:43;;;;;;;4.43;0.90;;;;;;;18.98;48.27;98127.34;5026770;28;20290;-70
2023/11/04 08:05:09;;;;;;;2.55;0.80;;;;;;;18.99;48.12;98123.66;5026357;28;20466;-72
2023/11/04 08:07:35;;;;;;;3.75;0.93;;;;;;;19.00;48.10;98118.19;5026678;28;20393;-70
2023/11/04 08:10:01;;;;;;;3.25;1.00;;;;;;;18.98;48.12;98108.84;5026106;28;20026;-69
2023/11/04 08:12:26;;;;;;;3.72;0.80;;;;;;;18.99;48.43;98103.38;5026164;28;20026;-69
2023/11/04 08:14:51;;;;;;;3.25;0.70;;;;;;;18.96;48.36;98090.59;4992384;28;20039;-70
2023/11/04 08:17:17;;;;;;;4.35;0.90;;;;;;;18.95;48.22;98088.94;5026292;28;20495;-69
2023/11/04 08:19:42;;;;;;;4.07;1.10;;;;;;;18.96;48.33;98068.63;5026167;28;20037;-73
2023/11/04 08:22:09;;;;;;;2.88;0.80;;;;;;;18.98;48.19;98078.00;5026114;28;20099;-71
2023/11/04 08:24:35;;;;;;;2.25;0.70;;;;;;;18.99;48.40;98070.88;5025950;28;20117;-70
2023/11/04 08:27:00;;;;;;;3.03;0.90;;;;;;;18.97;48.29;98059.72;5026586;28;20128;-69
2023/11/04 08:29:26;;;;;;;3.92;0.90;;;;;;;18.98;48.19;98058.72;5026978;28;20067;-68
2023/11/04 08:31:51;;;;;;;3.37;1.00;;;;;;;18.99;48.44;98057.69;4991611;28;20061;-70
2023/11/04 08:34:16;;;;;;;1.55;0.68;;;;;;;18.98;48.56;98048.97;5023949;28;20309;-70
2023/11/04 08:36:42;;;;;;;2.00;0.70;;;;;;;18.97;48.40;98043.88;5026079;28;20037;-69
2023/11/04 08:39:07;;;;;;;5.30;1.00;;;;;;;18.98;48.38;98043.69;5026197;28;20060;-71
2023/11/04 08:41:33;;;;;;;2.13;0.63;;;;;;;18.99;48.32;98040.03;5026265;28;20075;-69
2023/11/04 08:43:59;;;;;;;1.75;0.70;;;;;;;19.00;48.32;98038.22;5019736;28;20036;-66
2023/11/04 08:46:25;;;;;;;3.30;0.85;;;;;;;19.00;48.31;98035.56;4975030;28;20036;-67
2023/11/04 08:48:50;;;;;;;2.13;0.70;;;;;;;18.98;48.47;98027.84;5027578;28;20030;-70
2023/11/04 08:51:16;;;;;;;4.20;0.73;;;;;;;19.05;48.17;98034.97;5007483;28;20041;-71
2023/11/04 08:53:42;;;;;;;2.85;0.73;;;;;;;19.06;48.39;98021.59;5024587;28;20083;-69
2023/11/04 08:56:07;;;;;;;2.05;0.60;;;;;;;19.08;48.18;98019.56;5025167;28;20108;-69
2023/11/04 08:58:34;;;;;;;2.22;0.70;;;;;;;19.08;48.22;98021.38;5024460;28;20029;-69
2023/11/04 09:01:00;;;;;;;2.95;0.70;;;;;;;19.08;48.22;98016.91;5026028;28;20037;-69
2023/11/04 09:03:26;;;;;;;2.25;0.60;;;;;;;19.09;48.17;97997.44;5025264;28;20037;-69
2023/11/04 09:05:52;;;;;;;4.05;0.82;;;;;;;19.07;48.13;97999.44;5025555;28;20385;-69
2023/11/04 09:08:17;;;;;;;1.45;0.70;;;;;;;19.09;48.12;98002.72;5025886;28;20025;-70
2023/11/04 09:10:42;;;;;;;1.55;0.75;;;;;;;19.09;48.31;98001.88;5025599;28;20170;-69
2023/11/04 09:13:08;;;;;;;3.50;0.70;;;;;;;19.09;48.07;98005.34;5025925;28;20018;-70
2023/11/04 09:15:34;;;;;;;2.38;0.70;;;;;;;19.05;48.29;97996.19;5026115;28;20473;-70
2023/11/04 09:17:59;;;;;;;1.73;0.70;;;;;;;19.06;48.78;97992.53;5026440;28;20025;-71
2023/11/04 09:20:25;;;;;;;2.90;0.80;;;;;;;19.09;48.03;97991.31;5026567;28;20159;-70
2023/11/04 09:22:50;;;;;;;3.15;0.57;;;;;;;19.07;48.28;97988.88;5025941;28;20044;-70
2023/11/04 09:25:16;;;;;;;2.30;0.65;;;;;;;19.07;48.29;97986.25;5010595;28;20469;-69
2023/11/04 09:27:41;;;;;;;4.20;0.80;;;;;;;19.06;48.42;97981.16;5030830;28;20041;-68
2023/11/04 09:30:07;;;;;;;2.75;0.82;;;;;;;19.07;48.27;97974.88;5030086;28;20060;-68
2023/11/04 09:32:32;;;;;;;2.28;0.65;;;;;;;19.05;48.42;97969.00;5030435;28;20370;-68
2023/11/04 09:34:58;;;;;;;2.35;0.70;;;;;;;19.05;48.41;97956.59;5029693;28;20099;-68
2023/11/04 09:37:23;;;;;;;2.33;0.80;;;;;;;19.07;48.38;97954.56;5030279;28;20026;-69
2023/11/04 09:39:48;;;;;;;3.83;0.80;;;;;;;19.06;48.39;97944.22;5029604;28;20099;-70
2023/11/04 09:42:14;;;;;;;1.95;0.60;;;;;;;19.05;48.61;97935.47;5030188;28;20389;-70
2023/11/04 09:44:40;;;;;;;2.67;0.88;;;;;;;19.04;48.63;97936.47;5028016;28;20420;-71
2023/11/04 09:47:05;;;;;;;2.38;0.65;;;;;;;19.03;48.40;97927.75;5029089;28;20039;-68
2023/11/04 09:49:31;;;;;;;2.92;0.70;;;;;;;19.03;48.42;97930.41;5028846;28;20025;-70
2023/11/04 09:51:59;;;;;;;2.97;0.85;;;;;;;19.05;48.42;97914.38;5028389;28;20037;-69
2023/11/04 09:54:27;;;;;;;2.78;0.80;;;;;;;19.03;48.62;97919.84;5029252;28;20162;-69
2023/11/04 09:56:55;;;;;;;3.38;0.90;;;;;;;19.06;48.49;97912.53;5028464;28;20033;-70
2023/11/04 09:59:20;;;;;;;2.63;0.95;;;;;;;19.05;48.57;97895.09;5029643;28;20373;-70
2023/11/04 10:01:45;;;;;;;2.72;0.70;;;;;;;19.04;48.46;97896.91;5028136;28;20030;-70
2023/11/04 10:04:11;;;;;;;1.80;0.60;;;;;;;19.03;48.44;97888.19;5029347;28;20079;-70
2023/11/04 10:06:36;;;;;;;2.80;0.70;;;;;;;19.06;48.15;97886.13;5029387;28;20033;-70
2023/11/04 10:09:02;;;;;;;1.60;0.73;;;;;;;19.04;48.35;97881.06;5028679;28;20087;-70
2023/11/04 10:11:28;;;;;;;2.35;0.73;;;;;;;19.05;48.38;97864.22;5029701;28;20032;-70
2023/11/04 10:13:55;;;;;;;1.30;0.70;;;;;;;19.06;48.39;97865.03;5028201;28;20029;-70
2023/11/04 10:16:22;;;;;;;3.78;0.90;;;;;;;19.03;48.69;97853.06;4992200;28;20409;-69
2023/11/04 10:18:49;;;;;;;3.95;1.15;;;;;;;19.02;48.57;97849.59;5027618;28;20458;-68
2023/11/04 10:21:14;;;;;;;3.30;0.70;;;;;;;19.02;48.66;97851.44;4993645;28;20034;-69
2023/11/04 10:23:41;;;;;;;1.33;0.60;;;;;;;19.02;48.80;97833.75;5026776;28;20045;-70
2023/11/04 10:26:06;;;;;;;2.55;0.77;;;;;;;19.02;48.72;97840.88;5027915;28;20037;-70
2023/11/04 10:28:33;;;;;;;3.20;0.70;;;;;;;19.00;48.69;97829.72;5027879;28;20052;-70
2023/11/04 10:31:04;;;;;;;2.75;0.73;;;;;;;19.02;48.87;97825.03;5028209;28;20056;-69
2023/11/04 10:33:35;;;;;;;2.92;0.70;;;;;;;19.05;48.65;97815.91;5026322;28;20350;-70
2023/11/04 10:36:05;;;;;;;2.33;0.70;;;;;;;19.03;48.60;97802.91;5027197;28;20033;-70
2023/11/04 10:38:35;;;;;;;3.60;0.80;;;;;;;19.02;48.66;97799.44;5025789;28;20045;-69
2023/11/04 10:41:03;;;;;;;3.00;1.20;;;;;;;19.03;48.42;97787.09;5027058;28;20119;-69
2023/11/04 10:43:35;;;;;;;3.30;0.75;;;;;;;19.05;48.65;97784.25;5027637;28;20040;-71
2023/11/04 10:46:07;;;;;;;2.72;0.80;;;;;;;19.01;48.70;97773.28;5020618;28;20061;-70
2023/11/04 10:48:41;;;;;;;1.75;0.55;;;;;;;19.04;48.77;97770.22;5046819;28;20048;-69
2023/11/04 10:51:22;;;;;;;2.75;0.80;;;;;;;19.02;48.71;97765.13;5044613;28;20041;-70
2023/11/04 10:54:11;;;;;;;3.55;0.80;;;;;;;19.05;48.62;97756.00;5046493;28;20104;-68
2023/11/04 10:56:49;;;;;;;2.63;0.80;;;;;;;19.06;48.49;97752.38;5046964;28;20032;-69
2023/11/04 10:59:34;;;;;;;1.90;0.70;;;;;;;19.06;48.53;97751.53;5046611;28;20041;-69
2023/11/04 11:01:59;;;;;;;2.38;0.70;;;;;;;19.06;48.49;97735.69;5047159;28;20028;-67
2023/11/04 11:04:26;;;;;;;3.00;0.75;;;;;;;19.06;48.48;97722.50;5046730;28;20492;-70
2023/11/04 11:06:54;;;;;;;3.42;0.65;;;;;;;19.02;48.69;97717.63;5045938;28;20060;-69
2023/11/04 11:09:21;;;;;;;1.75;0.70;;;;;;;19.04;48.73;97714.78;5029176;28;20350;-69
2023/11/04 11:12:09;;;;;;;3.55;1.02;;;;;;;19.02;48.51;97699.16;5047079;28;20107;-70
2023/11/04 11:14:36;;;;;;;2.40;0.88;;;;;;;19.06;48.49;97691.66;5045467;28;20037;-70
2023/11/04 11:17:02;;;;;;;3.42;0.80;;;;;;;19.04;48.46;97677.84;5046216;28;20436;-69
2023/11/04 11:19:29;;;;;;;1.95;0.57;;;;;;;19.02;48.83;97669.31;5046129;28;20120;-67
2023/11/04 11:21:55;;;;;;;2.90;0.70;;;;;;;19.03;48.83;97668.31;5027710;28;20380;-68
2023/11/04 11:24:21;;;;;;;3.22;0.60;;;;;;;19.02;48.87;97656.13;5046192;28;20036;-68
2023/11/04 11:26:51;;;;;;;2.33;0.80;;;;;;;19.00;49.01;97647.63;5046193;28;20067;-69
2023/11/04 11:29:26;;;;;;;2.00;0.55;;;;;;;19.02;48.88;97633.19;5044746;28;20049;-67